Aviation Digital Data Service (ADDS)

Output produced by METARs form (2201 UTC 24 March 2019)
found at http://www.aviationweather.gov/metar/data/
 
TAF MSLP 242125Z 2500/2524 31005KT 9999 FEW070 TX34/2518Z TN23/2512Z 
     FM250600 06005KT 9999 FEW043 
     FM251800 21010G20KT 9999 FEW053
       
TAF MSSS 242125Z 2500/2524 35005KT 9999 FEW043 TX32/2518Z TN21/2512Z 
     FM252000 16008KT 9999 FEW043